Main page
METAR-TAF:

METAR-TAF

Airports :

Ingeniero Aeronáutico Ambrosio L.V. Taravella International Airport

Córdoba, Argentina

latitude: 31-19S, longitude: 064-13W, elevation: 484 m

Current weather observation

The report was made 10 minutes ago, at 19:00 UTC
Wind 9 kt from the South
Temperature 23°C
Humidity 44%
Pressure 1009 hPa
Visibility 10 km or more
Scattered clouds at a height of 3500 ft

METAR: SACO 131900Z 18009KT 9999 SCT035 23/10 Q1009 NOSIG

Time: 16:10 (19:10 UTC)

Forecast

The report was made 2 hours and 10 minutes ago, at 17:00 UTC
Forecast valid from 13 at 18 UTC to 14 at 18 UTC
Wind 15 kt from the South/Southwest
Visibility 10 km or more
Broken clouds at a height of 3000 ft
Becoming
from 13 at 22 UTC to 13 at 00 UTC
Wind 5 kt from variable directions
Visibility 10 km or more
Broken clouds at a height of 3000 ft

TAF: SACO 131700Z 1318/1418 20015KT 9999 BKN030 TX28/1418Z TN15/1409Z BECMG 1322/1300 VRB05KT 9999 BKN030

Weather observations and forecasts of more than 4000 airports (METAR and TAF reports).

The available stations are represented by yellow and red dots on the map.

Hover mouse over dot to see the name of the station.

Then click to see weather observations and forecasts.

To change the map : click on the green buttons with a black cross to zoom in, on the green button with a dash to zoom out, or on the green arrows for adjacent maps.


METAR-TAF: